createdAt,value
2022-09-15T00:00:32.841Z,8.23
2022-09-15T00:03:00.892Z,6.97
2022-09-15T00:05:28.542Z,11.52
2022-09-15T00:07:55.998Z,8.23
2022-09-15T00:10:23.627Z,10.05
2022-09-15T00:12:51.188Z,7.38
2022-09-15T00:15:18.838Z,6.40
2022-09-15T00:17:50.000Z,6.90
2022-09-15T00:20:18.628Z,6.57
2022-09-15T00:22:46.088Z,8.77
2022-09-15T00:25:14.302Z,10.90
2022-09-15T00:30:23.671Z,5.93
2022-09-15T00:32:51.284Z,9.50
2022-09-15T00:35:18.701Z,8.30
2022-09-15T00:37:46.188Z,8.27
2022-09-15T00:40:13.863Z,9.20
2022-09-15T00:42:41.396Z,8.40
2022-09-15T00:45:15.307Z,10.23
2022-09-15T00:47:42.814Z,5.78
2022-09-15T00:50:15.956Z,8.43
2022-09-15T00:52:52.531Z,5.50
2022-09-15T00:55:22.209Z,6.20
2022-09-15T00:58:01.214Z,4.72
2022-09-15T01:00:29.406Z,6.03
2022-09-15T01:02:57.440Z,8.73
2022-09-15T01:05:26.914Z,8.25
2022-09-15T01:07:57.112Z,5.82
2022-09-15T01:10:29.687Z,8.55
2022-09-15T01:13:01.564Z,7.00
2022-09-15T01:15:47.938Z,7.80
2022-09-15T01:18:15.476Z,7.97
2022-09-15T01:20:52.352Z,9.52
2022-09-15T01:23:25.957Z,7.18
2022-09-15T01:25:59.836Z,6.63
2022-09-15T01:28:30.439Z,5.78
2022-09-15T01:31:04.326Z,8.15
2022-09-15T01:33:36.927Z,6.70
2022-09-15T01:36:07.546Z,8.70
2022-09-15T01:38:55.907Z,7.30
2022-09-15T01:41:26.473Z,5.38
2022-09-15T01:43:54.124Z,9.77
2022-09-15T01:46:25.205Z,7.03
2022-09-15T01:48:55.127Z,7.60
2022-09-15T01:51:23.311Z,6.30
2022-09-15T01:53:51.685Z,8.35
2022-09-15T01:56:19.379Z,8.40
2022-09-15T01:58:50.067Z,5.63
2022-09-15T02:01:28.374Z,8.48
2022-09-15T02:03:56.013Z,8.00
2022-09-15T02:06:29.803Z,8.85
2022-09-15T02:09:00.628Z,7.93
2022-09-15T02:11:29.059Z,7.30
2022-09-15T02:14:11.536Z,8.50
2022-09-15T02:16:40.274Z,8.02
2022-09-15T02:22:03.643Z,9.02
2022-09-15T02:24:35.720Z,7.72
2022-09-15T02:27:04.915Z,7.00
2022-09-15T02:29:34.657Z,7.50
2022-09-15T02:32:06.851Z,8.20
2022-09-15T02:34:39.697Z,11.27
2022-09-15T02:37:07.577Z,8.05
2022-09-15T02:39:39.976Z,8.50
2022-09-15T02:42:10.927Z,10.15
2022-09-15T02:44:38.640Z,7.88
2022-09-15T02:47:06.184Z,9.50
2022-09-15T02:49:33.643Z,9.88
2022-09-15T02:52:01.125Z,9.82
2022-09-15T02:54:28.674Z,9.10
2022-09-15T02:56:56.154Z,10.23
2022-09-15T02:59:23.608Z,8.98
2022-09-15T03:01:52.370Z,9.25
2022-09-15T03:04:19.883Z,8.07
2022-09-15T03:06:47.337Z,8.90
2022-09-15T03:09:15.053Z,10.55
2022-09-15T03:11:42.532Z,11.97
2022-09-15T03:14:10.294Z,13.23
2022-09-15T03:16:37.830Z,8.47
2022-09-15T03:19:05.817Z,12.00
2022-09-15T03:21:33.405Z,11.95
2022-09-15T03:24:00.891Z,8.70
2022-09-15T03:26:28.520Z,11.88
2022-09-15T03:28:55.969Z,12.10
2022-09-15T03:31:23.620Z,9.90
2022-09-15T03:33:51.345Z,9.23
2022-09-15T03:36:18.892Z,10.07
2022-09-15T03:38:46.392Z,7.82
2022-09-15T03:41:14.214Z,11.98
2022-09-15T03:43:42.040Z,13.13
2022-09-15T03:46:11.567Z,12.00
2022-09-15T03:48:40.639Z,10.60
2022-09-15T03:51:09.380Z,10.45
2022-09-15T03:56:09.438Z,8.30
2022-09-15T03:58:37.058Z,12.85
2022-09-15T04:01:05.242Z,10.27
2022-09-15T04:03:32.865Z,11.40
2022-09-15T04:06:00.453Z,11.93
2022-09-15T04:08:28.043Z,12.93
2022-09-15T04:10:55.592Z,12.10
2022-09-15T04:13:27.978Z,10.27
2022-09-15T04:16:02.937Z,8.90
2022-09-15T04:18:31.152Z,9.95
2022-09-15T04:21:02.208Z,11.65
2022-09-15T04:23:29.690Z,12.88
2022-09-15T04:25:58.455Z,11.48
2022-09-15T04:28:26.825Z,13.75
2022-09-15T04:30:55.038Z,12.95
2022-09-15T04:33:22.751Z,10.25
2022-09-15T04:35:50.306Z,11.95
2022-09-15T04:38:17.763Z,14.00
2022-09-15T04:40:45.635Z,13.35
2022-09-15T04:43:13.224Z,9.35
2022-09-15T04:45:41.062Z,9.52
2022-09-15T04:48:08.658Z,8.77
2022-09-15T04:50:36.111Z,12.23
2022-09-15T04:53:03.582Z,9.98
2022-09-15T04:55:32.623Z,13.75
2022-09-15T04:58:00.164Z,8.88
2022-09-15T05:00:27.720Z,7.85
2022-09-15T05:02:55.184Z,9.23
2022-09-15T05:05:23.316Z,19.42
2022-09-15T05:07:51.036Z,8.77
2022-09-15T05:10:18.687Z,13.45
2022-09-15T05:12:46.365Z,13.03
2022-09-15T05:15:13.957Z,11.57
2022-09-15T05:17:41.443Z,10.07
2022-09-15T05:20:09.351Z,13.43
2022-09-15T05:22:41.487Z,10.00
2022-09-15T05:25:09.577Z,10.23
2022-09-15T05:27:39.339Z,12.77
2022-09-15T05:30:37.583Z,15.15
2022-09-15T05:32:56.362Z,10.68
2022-09-15T05:35:23.959Z,8.98
2022-09-15T05:37:51.394Z,11.40
2022-09-15T05:40:21.872Z,12.73
2022-09-15T05:42:49.383Z,15.07
2022-09-15T05:45:17.177Z,9.63
2022-09-15T05:47:44.704Z,11.40
2022-09-15T05:50:12.337Z,12.38
2022-09-15T05:52:40.315Z,10.13
2022-09-15T05:55:08.273Z,12.50
2022-09-15T05:57:35.719Z,10.95
2022-09-15T06:00:04.039Z,11.13
2022-09-15T06:02:39.456Z,9.55
2022-09-15T06:05:07.239Z,11.80
2022-09-15T06:07:34.835Z,9.80
2022-09-15T06:10:02.293Z,9.07
2022-09-15T06:12:29.758Z,14.52
2022-09-15T06:14:57.398Z,11.10
2022-09-15T06:17:24.989Z,9.80
2022-09-15T06:19:52.610Z,8.93
2022-09-15T06:22:20.081Z,7.57
2022-09-15T06:24:47.628Z,10.25
2022-09-15T06:27:15.049Z,12.70
2022-09-15T06:29:42.536Z,7.57
2022-09-15T06:32:10.066Z,10.65
2022-09-15T06:34:37.598Z,7.18
2022-09-15T06:37:05.117Z,8.93
2022-09-15T06:39:33.174Z,9.17
2022-09-15T06:42:03.181Z,9.27
2022-09-15T06:44:31.724Z,6.30
2022-09-15T06:46:59.221Z,9.10
2022-09-15T06:49:26.779Z,8.85
2022-09-15T06:51:54.268Z,8.80
2022-09-15T06:54:21.770Z,6.13
2022-09-15T06:56:49.219Z,5.05
2022-09-15T06:59:17.178Z,6.57
2022-09-15T07:01:44.837Z,6.85
2022-09-15T07:04:12.381Z,6.72
2022-09-15T07:06:40.519Z,6.57
2022-09-15T07:09:08.094Z,6.22
2022-09-15T07:11:35.857Z,5.30
2022-09-15T07:14:03.421Z,4.30
2022-09-15T07:16:31.051Z,5.95
2022-09-15T07:19:03.508Z,5.05
2022-09-15T07:21:31.073Z,8.32
2022-09-15T07:24:00.002Z,6.88
2022-09-15T07:26:31.355Z,6.28
2022-09-15T07:29:00.867Z,6.07
2022-09-15T07:31:31.291Z,4.65
2022-09-15T07:34:02.396Z,4.20
2022-09-15T07:36:30.394Z,8.35
2022-09-15T07:38:58.149Z,6.00
2022-09-15T07:41:27.512Z,6.40
2022-09-15T07:43:55.704Z,4.40
2022-09-15T07:46:23.965Z,6.45
2022-09-15T07:51:34.422Z,4.05
2022-09-15T07:54:01.879Z,5.03
2022-09-15T07:56:29.375Z,4.53
2022-09-15T07:58:57.591Z,6.80
2022-09-15T08:01:25.134Z,7.65
2022-09-15T08:03:59.797Z,3.65
2022-09-15T08:06:28.279Z,6.20
2022-09-15T08:09:00.340Z,5.72
2022-09-15T08:11:28.794Z,5.97
2022-09-15T08:13:56.332Z,9.30
2022-09-15T08:16:24.591Z,7.68
2022-09-15T08:19:03.647Z,8.30
2022-09-15T08:21:44.871Z,6.22
2022-09-15T08:24:13.191Z,11.60
2022-09-15T08:26:42.222Z,5.10
2022-09-15T08:29:10.023Z,6.35
2022-09-15T08:31:37.665Z,4.20
2022-09-15T08:34:06.989Z,4.90
2022-09-15T08:36:34.691Z,6.90
2022-09-15T08:39:02.273Z,8.30
2022-09-15T08:41:35.505Z,8.02
2022-09-15T08:44:21.796Z,6.78
2022-09-15T08:46:54.148Z,7.20
2022-09-15T08:49:50.701Z,5.82
2022-09-15T08:52:22.399Z,5.78
2022-09-15T08:54:51.614Z,5.45
2022-09-15T08:57:20.893Z,7.13
2022-09-15T08:59:48.514Z,7.03
2022-09-15T09:02:35.465Z,5.03
2022-09-15T09:05:15.362Z,5.60
2022-09-15T09:07:52.372Z,7.03
2022-09-15T09:10:29.532Z,6.43
2022-09-15T09:13:03.561Z,6.10
2022-09-15T09:15:39.553Z,6.35
2022-09-15T09:18:07.587Z,5.40
2022-09-15T09:20:42.987Z,6.78
2022-09-15T09:23:13.855Z,7.22
2022-09-15T09:25:42.294Z,7.72
2022-09-15T09:28:38.926Z,8.02
2022-09-15T09:31:08.450Z,4.60
2022-09-15T09:33:47.490Z,6.97
2022-09-15T09:36:15.336Z,7.65
2022-09-15T09:38:44.727Z,5.57
2022-09-15T09:41:14.642Z,7.07
2022-09-15T09:43:43.927Z,6.50
2022-09-15T09:46:15.033Z,4.70
2022-09-15T09:48:53.627Z,4.93
2022-09-15T09:51:31.227Z,6.40
2022-09-15T09:54:04.788Z,4.90
2022-09-15T09:56:32.336Z,7.13
2022-09-15T09:58:59.917Z,6.05
2022-09-15T10:01:27.650Z,6.55
2022-09-15T10:04:17.775Z,5.47
2022-09-15T10:06:45.423Z,7.85
2022-09-15T10:09:19.940Z,4.95
2022-09-15T10:11:51.749Z,3.88
2022-09-15T10:14:25.530Z,4.95
2022-09-15T10:16:57.837Z,5.63
2022-09-15T10:19:25.535Z,5.03
2022-09-15T10:21:53.076Z,5.93
2022-09-15T10:24:26.563Z,6.50
2022-09-15T10:27:06.647Z,6.47
2022-09-15T10:29:40.808Z,4.05
2022-09-15T10:32:28.593Z,5.07
2022-09-15T10:35:00.480Z,4.55
2022-09-15T10:37:27.907Z,7.88
2022-09-15T10:39:59.888Z,6.95
2022-09-15T10:42:30.532Z,5.72
2022-09-15T10:45:08.499Z,7.18
2022-09-15T10:47:59.030Z,5.85
2022-09-15T10:50:44.115Z,7.63
2022-09-15T10:53:11.554Z,9.68
2022-09-15T10:55:59.598Z,8.57
2022-09-15T10:58:33.802Z,7.53
2022-09-15T11:01:21.612Z,6.07
2022-09-15T11:03:49.290Z,9.00
2022-09-15T11:06:25.908Z,8.07
2022-09-15T11:08:59.678Z,5.95
2022-09-15T11:11:30.804Z,6.43
2022-09-15T11:14:06.243Z,7.28
2022-09-15T11:16:38.231Z,8.52
2022-09-15T11:19:09.202Z,20.20
2022-09-15T11:21:47.315Z,17.88
2022-09-15T11:24:24.994Z,15.90
2022-09-15T11:26:55.244Z,11.67
2022-09-15T11:29:25.822Z,7.82
2022-09-15T11:31:55.788Z,9.15
2022-09-15T11:34:40.033Z,8.57
2022-09-15T11:37:13.967Z,6.00
2022-09-15T11:39:51.213Z,10.15
2022-09-15T11:42:21.405Z,8.93
2022-09-15T11:44:49.457Z,6.35
2022-09-15T11:47:23.298Z,8.32
2022-09-15T11:49:53.575Z,16.92
2022-09-15T11:52:27.408Z,12.57
2022-09-15T11:54:57.988Z,8.20
2022-09-15T11:57:35.534Z,19.70
2022-09-15T12:00:12.071Z,8.57
2022-09-15T12:02:42.661Z,4.63
2022-09-15T12:05:13.268Z,3.78
2022-09-15T12:07:59.744Z,2.80
2022-09-15T12:10:32.219Z,4.85
2022-09-15T12:13:00.829Z,2.88
2022-09-15T12:18:34.227Z,2.78
2022-09-15T12:21:04.531Z,3.03
2022-09-15T12:23:34.801Z,2.88
2022-09-15T12:26:22.011Z,3.40
2022-09-15T12:28:54.279Z,4.75
2022-09-15T12:31:27.553Z,1.90
2022-09-15T12:33:55.266Z,3.45
2022-09-15T12:36:38.203Z,7.82
2022-09-15T12:39:19.366Z,2.22
2022-09-15T12:41:55.561Z,1.63
2022-09-15T12:44:42.263Z,3.30
2022-09-15T12:47:20.131Z,2.47
2022-09-15T12:49:49.447Z,3.55
2022-09-15T12:52:18.008Z,3.50
2022-09-15T12:57:36.374Z,3.67
2022-09-15T13:00:30.337Z,4.90
2022-09-15T13:02:58.132Z,2.78
2022-09-15T13:05:47.379Z,1.50
2022-09-15T13:08:36.351Z,2.38
2022-09-15T13:11:03.924Z,2.72
2022-09-15T13:13:38.540Z,4.15
2022-09-15T13:16:09.104Z,2.83
2022-09-15T13:18:37.061Z,3.22
2022-09-15T13:21:06.867Z,1.75
2022-09-15T13:23:37.565Z,3.15
2022-09-15T13:26:07.512Z,2.92
2022-09-15T13:28:35.527Z,2.40
2022-09-15T13:31:09.146Z,2.20
2022-09-15T13:39:42.188Z,3.28
2022-09-15T13:42:20.128Z,2.33
2022-09-15T13:44:56.852Z,4.90
2022-09-15T13:47:27.708Z,3.78
2022-09-15T13:50:14.811Z,2.85
2022-09-15T13:53:00.667Z,3.75
2022-09-15T13:55:29.886Z,6.05
2022-09-15T14:00:53.971Z,3.83
2022-09-15T14:03:40.042Z,4.18
2022-09-15T14:06:16.303Z,5.70
2022-09-15T14:08:44.956Z,3.78
2022-09-15T14:13:43.184Z,2.95
2022-09-15T14:16:19.873Z,3.33
2022-09-15T14:18:47.872Z,4.45
2022-09-15T14:21:25.399Z,7.43
2022-09-15T14:23:54.170Z,2.72
2022-09-15T14:28:59.363Z,2.80
2022-09-15T14:31:37.448Z,2.80
2022-09-15T14:34:14.636Z,5.65
2022-09-15T14:36:42.400Z,3.03
2022-09-15T14:39:12.637Z,5.32
2022-09-15T14:41:40.681Z,5.40
2022-09-15T14:47:28.112Z,3.35
2022-09-15T14:50:14.662Z,2.50
2022-09-15T14:52:45.226Z,2.88
2022-09-15T14:55:19.188Z,3.53
2022-09-15T14:57:52.374Z,2.85
2022-09-15T15:00:23.036Z,5.00
2022-09-15T15:02:53.635Z,5.57
2022-09-15T15:05:27.516Z,5.30
2022-09-15T15:07:56.030Z,5.65
2022-09-15T15:10:25.842Z,6.03
2022-09-15T15:12:54.412Z,6.75
2022-09-15T15:17:51.100Z,6.32
2022-09-15T15:20:26.940Z,6.13
2022-09-15T15:23:10.077Z,5.72
2022-09-15T15:25:37.627Z,3.08
2022-09-15T15:28:06.135Z,4.97
2022-09-15T15:30:35.802Z,3.08
2022-09-15T15:33:07.903Z,3.80
2022-09-15T15:35:35.901Z,4.97
2022-09-15T15:38:04.876Z,5.05
2022-09-15T15:40:32.776Z,8.63
2022-09-15T15:43:03.230Z,6.60
2022-09-15T15:45:31.593Z,5.20
2022-09-15T15:47:59.173Z,4.65
2022-09-15T15:50:28.250Z,5.85
2022-09-15T15:52:55.823Z,5.97
2022-09-15T15:55:24.574Z,3.10
2022-09-15T16:00:23.993Z,5.47
2022-09-15T16:02:52.249Z,4.10
2022-09-15T16:05:20.879Z,6.38
2022-09-15T16:07:50.215Z,10.90
2022-09-15T16:10:19.333Z,10.25
2022-09-15T16:12:46.887Z,6.80
2022-09-15T16:15:14.597Z,4.30
2022-09-15T16:17:45.977Z,6.90
2022-09-15T16:20:16.213Z,11.85
2022-09-15T16:22:44.368Z,14.98
2022-09-15T16:25:14.653Z,11.93
2022-09-15T16:27:42.323Z,10.93
2022-09-15T16:30:12.141Z,8.38
2022-09-15T16:32:40.822Z,4.65
2022-09-15T16:37:35.648Z,4.55
2022-09-15T16:40:03.335Z,5.20
2022-09-15T16:42:30.853Z,8.60
2022-09-15T16:44:58.752Z,9.55
2022-09-15T16:47:26.184Z,7.68
2022-09-15T16:49:53.684Z,6.70
2022-09-15T16:52:21.148Z,6.28
2022-09-15T16:54:49.157Z,6.20
2022-09-15T16:57:19.447Z,4.60
2022-09-15T16:59:47.011Z,4.00
2022-09-15T17:02:15.216Z,5.30
2022-09-15T17:04:42.870Z,4.32
2022-09-15T17:07:10.364Z,5.03
2022-09-15T17:09:37.852Z,3.90
2022-09-15T17:12:05.495Z,5.05
2022-09-15T17:14:32.960Z,4.63
2022-09-15T17:17:00.423Z,4.63
2022-09-15T17:19:27.859Z,2.85
2022-09-15T17:21:55.568Z,5.50
2022-09-15T17:24:23.056Z,3.03
2022-09-15T17:26:51.086Z,5.38
2022-09-15T17:29:18.542Z,7.07
2022-09-15T17:31:46.088Z,5.20
2022-09-15T17:34:14.560Z,4.13
2022-09-15T17:36:42.039Z,5.68
2022-09-15T17:39:09.559Z,4.65
2022-09-15T17:41:38.703Z,3.92
2022-09-15T17:44:10.181Z,4.38
2022-09-15T17:46:37.810Z,5.57
2022-09-15T17:49:05.351Z,5.45
2022-09-15T17:51:32.964Z,4.72
2022-09-15T17:54:00.444Z,2.80
2022-09-15T17:56:27.966Z,8.05
2022-09-15T17:58:55.471Z,7.70
2022-09-15T18:01:23.016Z,9.00
2022-09-15T18:03:50.577Z,5.80
2022-09-15T18:06:18.141Z,4.68
2022-09-15T18:08:45.693Z,8.13
2022-09-15T18:11:15.063Z,5.25
2022-09-15T18:13:43.223Z,5.85
2022-09-15T18:16:12.979Z,7.45
2022-09-15T18:18:41.113Z,6.28
2022-09-15T18:21:10.179Z,5.70
2022-09-15T18:23:39.175Z,6.00
2022-09-15T18:26:06.621Z,5.80
2022-09-15T18:28:34.101Z,5.80
2022-09-15T18:31:01.514Z,9.68
2022-09-15T18:33:29.193Z,9.63
2022-09-15T18:35:59.111Z,9.15
2022-09-15T18:38:26.708Z,8.63
2022-09-15T18:40:56.049Z,6.05
2022-09-15T18:43:25.420Z,6.18
2022-09-15T18:45:55.141Z,7.55
2022-09-15T18:48:22.807Z,6.78
2022-09-15T18:50:50.312Z,6.80
2022-09-15T18:53:17.847Z,3.78
2022-09-15T18:55:45.328Z,5.60
2022-09-15T18:58:13.610Z,5.65
2022-09-15T19:00:41.274Z,6.95
2022-09-15T19:03:09.771Z,5.10
2022-09-15T19:05:38.680Z,5.60
2022-09-15T19:08:08.554Z,7.63
2022-09-15T19:10:36.197Z,8.02
2022-09-15T19:13:03.724Z,6.63
2022-09-15T19:15:33.858Z,7.00
2022-09-15T19:18:02.131Z,7.07
2022-09-15T19:20:30.597Z,6.18
2022-09-15T19:22:58.812Z,7.22
2022-09-15T19:25:26.429Z,5.57
2022-09-15T19:27:54.049Z,8.52
2022-09-15T19:30:21.615Z,7.20
2022-09-15T19:32:49.068Z,6.90
2022-09-15T19:35:16.685Z,5.55
2022-09-15T19:37:44.271Z,5.57
2022-09-15T19:40:13.175Z,10.57
2022-09-15T19:42:41.263Z,9.57
2022-09-15T19:45:10.478Z,6.50
2022-09-15T19:47:38.562Z,8.20
2022-09-15T19:50:08.119Z,6.97
2022-09-15T19:52:35.669Z,7.65
2022-09-15T19:55:03.729Z,6.38
2022-09-15T19:57:31.311Z,7.43
2022-09-15T19:59:58.913Z,8.00
2022-09-15T20:02:26.494Z,9.43
2022-09-15T20:04:54.110Z,9.60
2022-09-15T20:07:21.644Z,6.82
2022-09-15T20:09:49.359Z,10.38
2022-09-15T20:12:17.004Z,8.88
2022-09-15T20:14:44.588Z,12.55
2022-09-15T20:17:12.594Z,36.75
2022-09-15T20:19:40.293Z,14.18
2022-09-15T20:22:07.960Z,11.07
2022-09-15T20:24:35.522Z,9.38
2022-09-15T20:27:03.314Z,6.80
2022-09-15T20:29:30.948Z,5.65
2022-09-15T20:31:58.645Z,6.43
2022-09-15T20:34:33.904Z,6.43
2022-09-15T20:37:06.446Z,4.32
2022-09-15T20:39:50.077Z,5.78
2022-09-15T20:42:26.233Z,5.95
2022-09-15T20:44:55.691Z,11.23
2022-09-15T20:47:29.737Z,12.32
2022-09-15T20:49:57.536Z,8.27
2022-09-15T20:52:29.441Z,11.57
2022-09-15T20:54:57.179Z,8.48
2022-09-15T20:57:24.591Z,11.20
2022-09-15T20:59:52.108Z,9.43
2022-09-15T21:02:19.580Z,9.63
2022-09-15T21:04:47.262Z,8.90
2022-09-15T21:07:14.841Z,7.18
2022-09-15T21:09:44.103Z,6.18
2022-09-15T21:12:11.579Z,8.73
2022-09-15T21:14:39.120Z,6.20
2022-09-15T21:17:07.159Z,5.28
2022-09-15T21:19:34.591Z,6.10
2022-09-15T21:22:02.154Z,4.95
2022-09-15T21:24:29.634Z,6.68
2022-09-15T21:27:15.753Z,6.07
2022-09-15T21:29:43.445Z,9.25
2022-09-15T21:32:11.421Z,5.97
2022-09-15T21:34:39.140Z,8.43
2022-09-15T21:37:06.593Z,4.30
2022-09-15T21:39:34.467Z,8.25
2022-09-15T21:42:01.927Z,6.17
2022-09-15T21:44:29.835Z,6.50
2022-09-15T21:46:57.474Z,9.50
2022-09-15T21:49:24.945Z,8.77
2022-09-15T21:51:52.937Z,8.93
2022-09-15T21:54:20.671Z,8.98
2022-09-15T21:56:48.917Z,5.67
2022-09-15T21:59:18.467Z,7.25
2022-09-15T22:01:46.483Z,6.70
2022-09-15T22:04:14.171Z,9.55
2022-09-15T22:06:42.088Z,10.57
2022-09-15T22:09:10.881Z,9.20
2022-09-15T22:11:38.577Z,9.20
2022-09-15T22:14:08.390Z,8.73
2022-09-15T22:16:37.284Z,8.88
2022-09-15T22:19:05.721Z,9.63
2022-09-15T22:21:36.944Z,9.90
2022-09-15T22:24:05.877Z,8.38
2022-09-15T22:26:34.844Z,10.25
2022-09-15T22:29:02.625Z,9.20
2022-09-15T22:31:30.345Z,11.18
2022-09-15T22:33:57.959Z,7.18
2022-09-15T22:36:29.163Z,10.35
2022-09-15T22:39:04.036Z,7.40
2022-09-15T22:41:36.330Z,9.80
2022-09-15T22:44:04.531Z,5.47
2022-09-15T22:46:32.103Z,9.80
2022-09-15T22:48:59.944Z,8.10
2022-09-15T22:51:27.394Z,7.97
2022-09-15T22:53:57.182Z,8.43
2022-09-15T22:56:26.414Z,8.38
2022-09-15T22:58:54.295Z,6.30
2022-09-15T23:01:26.211Z,12.98
2022-09-15T23:03:54.821Z,17.95
2022-09-15T23:06:22.947Z,10.27
2022-09-15T23:08:51.649Z,14.48
2022-09-15T23:13:46.712Z,11.80
2022-09-15T23:16:14.274Z,10.48
2022-09-15T23:18:41.828Z,11.15
2022-09-15T23:21:10.523Z,9.60
2022-09-15T23:26:06.351Z,8.95
2022-09-15T23:28:33.860Z,6.43
2022-09-15T23:31:01.398Z,7.63
2022-09-15T23:33:29.731Z,8.52
2022-09-15T23:35:59.256Z,9.15
2022-09-15T23:38:26.793Z,10.25
2022-09-15T23:40:54.351Z,9.35
2022-09-15T23:43:22.473Z,13.57
2022-09-15T23:45:51.329Z,10.32
2022-09-15T23:48:18.951Z,7.45
2022-09-15T23:50:46.995Z,8.27
2022-09-15T23:53:14.474Z,8.85
2022-09-15T23:55:41.956Z,6.47
2022-09-15T23:58:09.459Z,7.25
